createdAt,value
2019-05-25T00:03:31.649Z,15.30
2019-05-25T00:08:35.578Z,13.50
2019-05-25T00:13:39.484Z,14.10
2019-05-25T00:18:43.427Z,16.23
2019-05-25T00:23:47.566Z,11.80
2019-05-25T00:28:51.446Z,14.03
2019-05-25T00:33:55.382Z,13.22
2019-05-25T00:38:59.284Z,12.63
2019-05-25T00:44:03.208Z,11.85
2019-05-25T00:49:07.147Z,12.00
2019-05-25T00:54:26.737Z,14.13
2019-05-25T00:59:16.689Z,12.80
2019-05-25T01:04:20.613Z,11.43
2019-05-25T01:09:24.541Z,14.30
2019-05-25T01:14:28.452Z,12.13
2019-05-25T01:19:32.520Z,9.15
2019-05-25T01:24:44.245Z,11.63
2019-05-25T01:29:41.920Z,12.33
2019-05-25T01:34:45.795Z,9.88
2019-05-25T01:39:49.654Z,9.48
2019-05-25T01:44:53.529Z,11.10
2019-05-25T01:49:57.425Z,11.12
2019-05-25T01:55:01.301Z,12.55
2019-05-25T02:00:06.974Z,13.40
2019-05-25T02:05:10.844Z,11.35
2019-05-25T02:10:14.926Z,11.12
2019-05-25T02:15:19.052Z,10.03
2019-05-25T02:20:22.897Z,16.82
2019-05-25T02:25:26.925Z,15.25
2019-05-25T02:30:30.897Z,18.65
2019-05-25T02:35:34.741Z,9.10
2019-05-25T02:40:38.653Z,14.83
2019-05-25T02:45:42.568Z,15.25
2019-05-25T02:50:46.493Z,11.03
2019-05-25T02:55:50.411Z,15.25
2019-05-25T03:00:54.317Z,21.12
2019-05-25T03:05:58.638Z,14.45
2019-05-25T03:11:02.689Z,17.12
2019-05-25T03:16:06.569Z,12.53
2019-05-25T03:21:10.442Z,13.98
2019-05-25T03:26:14.314Z,11.70
2019-05-25T03:31:18.197Z,13.48
2019-05-25T03:36:22.021Z,11.03
2019-05-25T03:41:25.895Z,15.83
2019-05-25T03:46:29.764Z,12.33
2019-05-25T03:51:33.654Z,14.13
2019-05-25T03:56:37.542Z,11.40
2019-05-25T04:01:41.423Z,13.45
2019-05-25T04:06:45.371Z,13.38
2019-05-25T04:11:49.196Z,19.35
2019-05-25T04:16:53.113Z,12.00
2019-05-25T04:21:56.944Z,14.90
2019-05-25T04:27:00.855Z,12.82
2019-05-25T04:32:04.798Z,12.00
2019-05-25T04:37:08.705Z,11.25
2019-05-25T04:42:12.566Z,12.63
2019-05-25T04:47:26.505Z,17.17
2019-05-25T04:52:22.044Z,15.65
2019-05-25T04:57:25.959Z,14.07
2019-05-25T05:02:29.806Z,14.85
2019-05-25T05:07:33.718Z,12.07
2019-05-25T05:12:37.650Z,12.00
2019-05-25T05:17:41.583Z,14.25
2019-05-25T05:22:45.513Z,12.98
2019-05-25T05:27:49.448Z,12.73
2019-05-25T05:32:53.376Z,16.50
2019-05-25T05:37:59.872Z,13.10
2019-05-25T05:43:06.843Z,12.28
2019-05-25T05:48:13.622Z,16.07
2019-05-25T05:53:19.225Z,14.30
2019-05-25T05:58:23.102Z,12.03
2019-05-25T06:03:29.148Z,12.50
2019-05-25T06:08:33.056Z,15.98
2019-05-25T06:13:36.954Z,15.68
2019-05-25T06:18:40.845Z,12.98
2019-05-25T06:23:44.779Z,16.20
2019-05-25T06:28:48.691Z,17.60
2019-05-25T06:33:52.625Z,14.35
2019-05-25T06:38:56.587Z,12.95
2019-05-25T06:44:00.462Z,12.70
2019-05-25T06:49:04.646Z,13.55
2019-05-25T06:54:08.530Z,15.18
2019-05-25T06:59:12.424Z,18.55
2019-05-25T07:04:16.385Z,16.45
2019-05-25T07:09:22.059Z,13.18
2019-05-25T07:14:25.931Z,15.88
2019-05-25T07:19:29.841Z,15.15
2019-05-25T07:24:33.743Z,14.03
2019-05-25T07:29:37.629Z,16.60
2019-05-25T07:34:41.531Z,18.05
2019-05-25T07:39:45.400Z,13.20
2019-05-25T07:44:49.296Z,14.70
2019-05-25T07:49:53.294Z,12.78
2019-05-25T07:54:57.288Z,14.87
2019-05-25T08:00:01.221Z,17.45
2019-05-25T08:05:08.379Z,18.37
2019-05-25T08:10:12.920Z,25.30
2019-05-25T08:15:17.199Z,13.15
2019-05-25T08:20:21.326Z,21.48
2019-05-25T08:25:25.559Z,13.22
2019-05-25T08:30:29.692Z,15.25
2019-05-25T08:35:33.900Z,12.30
2019-05-25T08:40:37.956Z,24.02
2019-05-25T08:45:42.296Z,16.77
2019-05-25T08:50:46.319Z,12.07
2019-05-25T08:55:50.554Z,8.80
2019-05-25T09:00:54.482Z,7.60
2019-05-25T09:05:58.616Z,11.90
2019-05-25T09:11:03.695Z,7.62
2019-05-25T09:16:08.718Z,9.28
2019-05-25T09:21:27.528Z,9.38
2019-05-25T09:31:34.733Z,12.40
2019-05-25T09:36:38.660Z,13.10
2019-05-25T09:41:42.690Z,7.05
2019-05-25T09:46:46.617Z,9.08
2019-05-25T09:51:50.543Z,6.22
2019-05-25T09:56:54.567Z,6.15
2019-05-25T10:01:58.499Z,8.95
2019-05-25T10:07:02.529Z,6.70
2019-05-25T10:12:06.552Z,10.93
2019-05-25T10:17:10.690Z,10.15
2019-05-25T10:22:14.618Z,9.13
2019-05-25T10:27:18.731Z,15.60
2019-05-25T10:32:22.674Z,8.90
2019-05-25T10:37:26.808Z,7.45
2019-05-25T10:42:30.941Z,8.20
2019-05-25T10:47:35.078Z,9.85
2019-05-25T10:52:39.080Z,13.05
2019-05-25T10:57:43.131Z,13.98
2019-05-25T11:02:47.158Z,10.78
2019-05-25T11:07:51.187Z,16.10
2019-05-25T11:12:55.296Z,12.65
2019-05-25T11:18:01.141Z,10.13
2019-05-25T11:23:05.015Z,9.10
2019-05-25T11:28:09.150Z,7.92
2019-05-25T11:33:13.156Z,6.75
2019-05-25T11:38:17.083Z,10.72
2019-05-25T11:43:21.008Z,9.20
2019-05-25T11:48:24.923Z,7.72
2019-05-25T11:53:30.106Z,11.70
2019-05-25T11:58:46.580Z,5.87
2019-05-25T12:03:39.615Z,10.88
2019-05-25T12:08:43.550Z,9.55
2019-05-25T12:13:47.481Z,13.88
2019-05-25T12:18:51.427Z,10.03
2019-05-25T12:23:55.353Z,4.53
2019-05-25T12:28:59.269Z,8.65
2019-05-25T12:34:03.216Z,6.10
2019-05-25T12:39:07.843Z,22.48
2019-05-25T12:44:11.753Z,10.23
2019-05-25T12:49:15.682Z,9.70
2019-05-25T12:54:19.612Z,12.90
2019-05-25T12:59:23.527Z,13.20
2019-05-25T13:04:27.472Z,16.82
2019-05-25T13:09:31.393Z,6.95
2019-05-25T13:14:35.297Z,8.78
2019-05-25T13:19:39.187Z,9.95
2019-05-25T13:24:43.089Z,8.78
2019-05-25T13:29:46.956Z,15.15
2019-05-25T13:34:50.834Z,11.38
2019-05-25T13:39:54.718Z,11.28
2019-05-25T13:44:58.625Z,9.63
2019-05-25T13:50:02.513Z,11.20
2019-05-25T13:55:06.612Z,8.68
2019-05-25T14:00:12.123Z,10.38
2019-05-25T14:05:16.198Z,12.05
2019-05-25T14:10:20.069Z,9.03
2019-05-25T14:15:23.954Z,14.85
2019-05-25T14:20:27.828Z,6.47
2019-05-25T14:25:31.744Z,7.05
2019-05-25T14:30:35.596Z,12.10
2019-05-25T14:35:39.469Z,4.30
2019-05-25T14:40:43.353Z,9.30
2019-05-25T14:45:47.229Z,10.68
2019-05-25T14:50:51.119Z,6.20
2019-05-25T14:55:55.020Z,6.62
2019-05-25T15:00:58.960Z,6.47
2019-05-25T15:06:02.929Z,5.75
2019-05-25T15:11:06.780Z,6.72
2019-05-25T15:16:12.113Z,10.60
2019-05-25T15:21:19.197Z,7.87
2019-05-25T15:26:23.230Z,8.55
2019-05-25T15:31:27.146Z,6.35
2019-05-25T15:36:31.058Z,6.62
2019-05-25T15:41:35.009Z,5.75
2019-05-25T15:46:39.169Z,7.10
2019-05-25T15:51:43.228Z,8.00
2019-05-25T15:56:47.127Z,9.78
2019-05-25T16:01:51.075Z,5.92
2019-05-25T16:06:54.973Z,6.90
2019-05-25T16:11:58.879Z,9.55
2019-05-25T16:17:02.913Z,5.78
2019-05-25T16:22:06.840Z,4.42
2019-05-25T16:27:10.770Z,6.45
2019-05-25T16:32:14.901Z,4.15
2019-05-25T16:37:18.986Z,11.35
2019-05-25T16:42:23.165Z,8.53
2019-05-25T16:47:28.626Z,6.33
2019-05-25T16:52:32.763Z,10.88
2019-05-25T16:57:36.683Z,6.53
2019-05-25T17:02:41.434Z,13.58
2019-05-25T17:07:45.276Z,10.75
2019-05-25T17:12:49.391Z,19.40
2019-05-25T17:17:53.349Z,8.70
2019-05-25T17:22:57.296Z,9.03
2019-05-25T17:28:01.246Z,13.28
2019-05-25T17:33:05.197Z,14.70
2019-05-25T17:38:09.324Z,9.53
2019-05-25T17:43:13.244Z,6.90
2019-05-25T17:48:17.318Z,12.98
2019-05-25T17:53:21.238Z,17.30
2019-05-25T17:58:25.167Z,24.32
2019-05-25T18:03:29.385Z,12.68
2019-05-25T18:08:33.476Z,12.60
2019-05-25T18:13:37.475Z,11.03
2019-05-25T18:18:42.167Z,13.95
2019-05-25T18:23:47.714Z,10.28
2019-05-25T18:28:53.718Z,5.67
2019-05-25T18:33:58.086Z,7.60
2019-05-25T18:39:01.979Z,5.58
2019-05-25T18:44:05.850Z,12.58
2019-05-25T18:49:12.158Z,9.00
2019-05-25T18:54:16.101Z,15.53
2019-05-25T18:59:22.009Z,12.63
2019-05-25T19:04:43.406Z,17.85
2019-05-25T19:09:31.588Z,10.78
2019-05-25T19:14:35.564Z,12.75
2019-05-25T19:19:40.139Z,9.73
2019-05-25T19:24:45.567Z,10.20
2019-05-25T19:29:49.535Z,8.10
2019-05-25T19:34:59.389Z,11.05
2019-05-25T19:40:07.951Z,11.97
2019-05-25T19:45:08.924Z,14.35
2019-05-25T19:50:12.989Z,11.90
2019-05-25T19:55:16.893Z,14.30
2019-05-25T20:00:24.166Z,9.53
2019-05-25T20:05:28.214Z,8.60
2019-05-25T20:10:33.383Z,12.20
2019-05-25T20:15:41.276Z,12.93
2019-05-25T20:20:45.618Z,27.77
2019-05-25T20:25:49.680Z,31.15
2019-05-25T20:30:53.693Z,30.80
2019-05-25T20:35:57.739Z,30.02
2019-05-25T20:41:01.692Z,30.48
2019-05-25T20:46:05.733Z,22.00
2019-05-25T20:51:09.959Z,21.10
2019-05-25T20:56:14.066Z,18.32
2019-05-25T21:01:17.993Z,16.20
2019-05-25T21:06:21.961Z,16.52
2019-05-25T21:11:25.986Z,16.90
2019-05-25T21:16:30.076Z,13.83
2019-05-25T21:21:34.368Z,21.55
2019-05-25T21:26:38.353Z,36.10
2019-05-25T21:31:42.270Z,26.17
2019-05-25T21:36:46.191Z,24.95
2019-05-25T21:41:50.323Z,28.25
2019-05-25T21:46:54.689Z,27.30
2019-05-25T21:51:58.564Z,27.73
2019-05-25T21:57:02.437Z,19.23
2019-05-25T22:02:06.313Z,11.78
2019-05-25T22:07:10.184Z,13.98
2019-05-25T22:12:14.058Z,19.25
2019-05-25T22:17:17.929Z,14.68
2019-05-25T22:22:21.807Z,13.40
2019-05-25T22:27:25.687Z,10.28
2019-05-25T22:32:29.554Z,10.03
2019-05-25T22:37:33.427Z,13.28
2019-05-25T22:42:37.427Z,14.25
2019-05-25T22:47:41.271Z,13.70
2019-05-25T22:52:45.137Z,14.07
2019-05-25T22:57:48.956Z,14.78
2019-05-25T23:02:52.827Z,14.43
2019-05-25T23:07:56.708Z,13.65
2019-05-25T23:13:00.521Z,12.85
2019-05-25T23:18:04.584Z,10.98
2019-05-25T23:23:08.462Z,14.68
2019-05-25T23:28:12.338Z,10.03
2019-05-25T23:33:16.434Z,15.23
2019-05-25T23:38:20.371Z,12.00
2019-05-25T23:43:24.623Z,13.32
2019-05-25T23:48:28.559Z,13.03
2019-05-25T23:53:32.834Z,13.93
2019-05-25T23:58:36.775Z,13.78
